sensor_id;sensor_type;location;lat;lon;timestamp;P1;durP1;ratioP1;P2;durP2;ratioP2
43837;SDS011;29493;46.516;6.638;2022-09-17T00:02:18;3.93;;;1.60;;
43837;SDS011;29493;46.516;6.638;2022-09-17T00:04:46;4.25;;;1.30;;
43837;SDS011;29493;46.516;6.638;2022-09-17T00:07:11;3.40;;;1.40;;
43837;SDS011;29493;46.516;6.638;2022-09-17T00:09:37;3.47;;;1.30;;
43837;SDS011;29493;46.516;6.638;2022-09-17T00:12:02;3.03;;;1.40;;
43837;SDS011;29493;46.516;6.638;2022-09-17T00:14:28;3.25;;;1.40;;
43837;SDS011;29493;46.516;6.638;2022-09-17T00:16:54;4.53;;;1.40;;
43837;SDS011;29493;46.516;6.638;2022-09-17T00:19:20;3.93;;;1.40;;
43837;SDS011;29493;46.516;6.638;2022-09-17T00:21:47;3.50;;;1.40;;
43837;SDS011;29493;46.516;6.638;2022-09-17T00:24:13;4.20;;;1.63;;
43837;SDS011;29493;46.516;6.638;2022-09-17T00:26:39;5.70;;;1.60;;
43837;SDS011;29493;46.516;6.638;2022-09-17T00:29:05;5.47;;;1.47;;
43837;SDS011;29493;46.516;6.638;2022-09-17T00:31:31;3.30;;;1.50;;
43837;SDS011;29493;46.516;6.638;2022-09-17T00:33:57;5.20;;;1.57;;
43837;SDS011;29493;46.516;6.638;2022-09-17T00:36:23;2.70;;;1.30;;
43837;SDS011;29493;46.516;6.638;2022-09-17T00:38:49;5.87;;;1.40;;
43837;SDS011;29493;46.516;6.638;2022-09-17T00:41:15;4.80;;;1.50;;
43837;SDS011;29493;46.516;6.638;2022-09-17T00:43:42;4.30;;;1.67;;
43837;SDS011;29493;46.516;6.638;2022-09-17T00:46:50;4.37;;;1.43;;
43837;SDS011;29493;46.516;6.638;2022-09-17T00:48:58;3.40;;;1.60;;
43837;SDS011;29493;46.516;6.638;2022-09-17T00:51:37;3.88;;;1.42;;
43837;SDS011;29493;46.516;6.638;2022-09-17T00:54:05;3.67;;;1.77;;
43837;SDS011;29493;46.516;6.638;2022-09-17T00:56:32;5.15;;;1.67;;
43837;SDS011;29493;46.516;6.638;2022-09-17T00:58:58;3.93;;;1.80;;
43837;SDS011;29493;46.516;6.638;2022-09-17T01:01:25;4.22;;;1.55;;
43837;SDS011;29493;46.516;6.638;2022-09-17T01:03:50;2.73;;;1.47;;
43837;SDS011;29493;46.516;6.638;2022-09-17T01:24:56;3.40;;;1.30;;
43837;SDS011;29493;46.516;6.638;2022-09-17T01:27:44;5.05;;;1.30;;
43837;SDS011;29493;46.516;6.638;2022-09-17T01:30:24;5.93;;;1.73;;
43837;SDS011;29493;46.516;6.638;2022-09-17T01:32:51;3.03;;;1.40;;
43837;SDS011;29493;46.516;6.638;2022-09-17T01:40:35;3.30;;;1.27;;
43837;SDS011;29493;46.516;6.638;2022-09-17T01:43:05;3.83;;;1.30;;
43837;SDS011;29493;46.516;6.638;2022-09-17T01:45:34;3.20;;;1.40;;
43837;SDS011;29493;46.516;6.638;2022-09-17T01:48:24;4.82;;;1.25;;
43837;SDS011;29493;46.516;6.638;2022-09-17T01:53:51;3.17;;;1.20;;
43837;SDS011;29493;46.516;6.638;2022-09-17T01:56:19;3.33;;;1.33;;
43837;SDS011;29493;46.516;6.638;2022-09-17T01:59:23;3.97;;;1.08;;
43837;SDS011;29493;46.516;6.638;2022-09-17T02:01:41;3.72;;;0.95;;
43837;SDS011;29493;46.516;6.638;2022-09-17T02:04:18;4.07;;;1.10;;
43837;SDS011;29493;46.516;6.638;2022-09-17T02:06:46;2.42;;;1.00;;
43837;SDS011;29493;46.516;6.638;2022-09-17T02:09:22;3.53;;;1.03;;
43837;SDS011;29493;46.516;6.638;2022-09-17T02:11:53;2.80;;;1.20;;
43837;SDS011;29493;46.516;6.638;2022-09-17T02:14:23;2.75;;;0.90;;
43837;SDS011;29493;46.516;6.638;2022-09-17T02:16:50;2.25;;;0.98;;
43837;SDS011;29493;46.516;6.638;2022-09-17T02:19:17;3.05;;;1.00;;
43837;SDS011;29493;46.516;6.638;2022-09-17T02:27:06;2.53;;;0.80;;
43837;SDS011;29493;46.516;6.638;2022-09-17T02:29:34;2.67;;;0.80;;
43837;SDS011;29493;46.516;6.638;2022-09-17T02:32:01;2.63;;;0.73;;
43837;SDS011;29493;46.516;6.638;2022-09-17T02:34:27;2.77;;;0.80;;
43837;SDS011;29493;46.516;6.638;2022-09-17T02:36:54;3.28;;;0.75;;
43837;SDS011;29493;46.516;6.638;2022-09-17T02:39:20;2.60;;;0.60;;
43837;SDS011;29493;46.516;6.638;2022-09-17T02:41:48;3.00;;;0.60;;
43837;SDS011;29493;46.516;6.638;2022-09-17T02:44:21;2.00;;;0.50;;
43837;SDS011;29493;46.516;6.638;2022-09-17T02:51:55;1.87;;;0.50;;
43837;SDS011;29493;46.516;6.638;2022-09-17T02:54:33;3.65;;;0.50;;
43837;SDS011;29493;46.516;6.638;2022-09-17T02:57:04;2.33;;;0.60;;
43837;SDS011;29493;46.516;6.638;2022-09-17T03:04:21;2.23;;;0.57;;
43837;SDS011;29493;46.516;6.638;2022-09-17T03:06:50;2.05;;;0.50;;
43837;SDS011;29493;46.516;6.638;2022-09-17T03:09:15;3.00;;;0.60;;
43837;SDS011;29493;46.516;6.638;2022-09-17T03:11:41;2.42;;;0.55;;
43837;SDS011;29493;46.516;6.638;2022-09-17T03:14:06;3.33;;;0.57;;
43837;SDS011;29493;46.516;6.638;2022-09-17T03:16:32;2.67;;;0.50;;
43837;SDS011;29493;46.516;6.638;2022-09-17T03:18:57;3.05;;;0.70;;
43837;SDS011;29493;46.516;6.638;2022-09-17T03:21:23;3.00;;;0.60;;
43837;SDS011;29493;46.516;6.638;2022-09-17T03:23:49;2.10;;;0.60;;
43837;SDS011;29493;46.516;6.638;2022-09-17T03:26:14;1.90;;;0.50;;
43837;SDS011;29493;46.516;6.638;2022-09-17T03:28:40;1.80;;;0.50;;
43837;SDS011;29493;46.516;6.638;2022-09-17T03:31:05;2.60;;;0.67;;
43837;SDS011;29493;46.516;6.638;2022-09-17T03:33:31;2.08;;;0.50;;
43837;SDS011;29493;46.516;6.638;2022-09-17T03:35:57;2.17;;;0.50;;
43837;SDS011;29493;46.516;6.638;2022-09-17T03:38:22;2.33;;;0.50;;
43837;SDS011;29493;46.516;6.638;2022-09-17T03:41:00;1.90;;;0.50;;
43837;SDS011;29493;46.516;6.638;2022-09-17T03:43:26;3.90;;;0.70;;
43837;SDS011;29493;46.516;6.638;2022-09-17T03:45:52;2.30;;;0.60;;
43837;SDS011;29493;46.516;6.638;2022-09-17T03:48:18;2.90;;;0.50;;
43837;SDS011;29493;46.516;6.638;2022-09-17T03:50:43;2.03;;;0.60;;
43837;SDS011;29493;46.516;6.638;2022-09-17T03:53:09;2.70;;;0.60;;
43837;SDS011;29493;46.516;6.638;2022-09-17T03:55:38;2.30;;;0.55;;
43837;SDS011;29493;46.516;6.638;2022-09-17T03:58:04;1.83;;;0.70;;
43837;SDS011;29493;46.516;6.638;2022-09-17T04:00:30;3.70;;;0.70;;
43837;SDS011;29493;46.516;6.638;2022-09-17T04:02:55;2.33;;;0.68;;
43837;SDS011;29493;46.516;6.638;2022-09-17T04:05:20;2.73;;;0.60;;
43837;SDS011;29493;46.516;6.638;2022-09-17T04:07:46;3.40;;;0.67;;
43837;SDS011;29493;46.516;6.638;2022-09-17T04:10:11;2.85;;;0.52;;
43837;SDS011;29493;46.516;6.638;2022-09-17T04:12:37;2.50;;;0.70;;
43837;SDS011;29493;46.516;6.638;2022-09-17T04:15:03;3.90;;;0.80;;
43837;SDS011;29493;46.516;6.638;2022-09-17T04:17:29;2.47;;;0.50;;
43837;SDS011;29493;46.516;6.638;2022-09-17T04:19:54;2.87;;;0.70;;
43837;SDS011;29493;46.516;6.638;2022-09-17T04:22:20;1.70;;;0.50;;
43837;SDS011;29493;46.516;6.638;2022-09-17T04:24:45;1.95;;;0.70;;
43837;SDS011;29493;46.516;6.638;2022-09-17T04:27:10;2.67;;;0.70;;
43837;SDS011;29493;46.516;6.638;2022-09-17T04:29:36;2.13;;;0.70;;
43837;SDS011;29493;46.516;6.638;2022-09-17T04:32:02;3.45;;;1.00;;
43837;SDS011;29493;46.516;6.638;2022-09-17T04:34:27;2.97;;;0.60;;
43837;SDS011;29493;46.516;6.638;2022-09-17T04:36:54;3.22;;;0.68;;
43837;SDS011;29493;46.516;6.638;2022-09-17T04:39:19;2.20;;;0.70;;
43837;SDS011;29493;46.516;6.638;2022-09-17T04:45:04;3.50;;;0.60;;
43837;SDS011;29493;46.516;6.638;2022-09-17T04:48:04;2.95;;;0.60;;
43837;SDS011;29493;46.516;6.638;2022-09-17T04:50:30;2.70;;;0.50;;
43837;SDS011;29493;46.516;6.638;2022-09-17T04:52:57;2.88;;;0.70;;
43837;SDS011;29493;46.516;6.638;2022-09-17T04:55:25;2.05;;;0.70;;
43837;SDS011;29493;46.516;6.638;2022-09-17T04:57:52;2.63;;;0.60;;
43837;SDS011;29493;46.516;6.638;2022-09-17T05:00:18;2.30;;;0.60;;
43837;SDS011;29493;46.516;6.638;2022-09-17T05:02:45;2.20;;;0.50;;
43837;SDS011;29493;46.516;6.638;2022-09-17T05:05:11;4.00;;;0.50;;
43837;SDS011;29493;46.516;6.638;2022-09-17T05:07:39;1.95;;;0.50;;
43837;SDS011;29493;46.516;6.638;2022-09-17T05:10:05;2.73;;;0.60;;
43837;SDS011;29493;46.516;6.638;2022-09-17T05:12:34;2.40;;;0.30;;
43837;SDS011;29493;46.516;6.638;2022-09-17T05:14:59;3.15;;;0.55;;
43837;SDS011;29493;46.516;6.638;2022-09-17T05:17:25;3.10;;;0.47;;
43837;SDS011;29493;46.516;6.638;2022-09-17T05:19:50;1.92;;;0.40;;
43837;SDS011;29493;46.516;6.638;2022-09-17T05:22:17;1.93;;;0.60;;
43837;SDS011;29493;46.516;6.638;2022-09-17T05:24:43;2.95;;;0.60;;
43837;SDS011;29493;46.516;6.638;2022-09-17T05:27:09;2.30;;;0.50;;
43837;SDS011;29493;46.516;6.638;2022-09-17T05:29:34;3.43;;;0.50;;
43837;SDS011;29493;46.516;6.638;2022-09-17T05:32:01;2.53;;;0.60;;
43837;SDS011;29493;46.516;6.638;2022-09-17T05:34:27;3.07;;;0.50;;
43837;SDS011;29493;46.516;6.638;2022-09-17T05:36:52;2.97;;;0.70;;
43837;SDS011;29493;46.516;6.638;2022-09-17T05:39:19;2.55;;;0.60;;
43837;SDS011;29493;46.516;6.638;2022-09-17T05:41:59;3.50;;;0.80;;
43837;SDS011;29493;46.516;6.638;2022-09-17T05:44:25;1.80;;;0.50;;
43837;SDS011;29493;46.516;6.638;2022-09-17T05:46:51;1.95;;;0.60;;
43837;SDS011;29493;46.516;6.638;2022-09-17T05:49:16;2.70;;;0.80;;
43837;SDS011;29493;46.516;6.638;2022-09-17T05:51:42;2.53;;;0.60;;
43837;SDS011;29493;46.516;6.638;2022-09-17T05:54:08;2.00;;;0.40;;
43837;SDS011;29493;46.516;6.638;2022-09-17T05:56:33;2.83;;;0.50;;
43837;SDS011;29493;46.516;6.638;2022-09-17T05:58:59;2.50;;;0.50;;
43837;SDS011;29493;46.516;6.638;2022-09-17T06:01:25;2.67;;;0.60;;
43837;SDS011;29493;46.516;6.638;2022-09-17T06:03:50;2.92;;;0.55;;
43837;SDS011;29493;46.516;6.638;2022-09-17T06:06:16;2.33;;;0.50;;
43837;SDS011;29493;46.516;6.638;2022-09-17T06:08:41;1.45;;;0.40;;
43837;SDS011;29493;46.516;6.638;2022-09-17T06:11:07;2.73;;;0.40;;
43837;SDS011;29493;46.516;6.638;2022-09-17T06:13:33;2.35;;;0.60;;
43837;SDS011;29493;46.516;6.638;2022-09-17T06:15:59;2.08;;;0.50;;
43837;SDS011;29493;46.516;6.638;2022-09-17T06:18:25;3.05;;;0.55;;
43837;SDS011;29493;46.516;6.638;2022-09-17T06:20:52;2.50;;;0.70;;
43837;SDS011;29493;46.516;6.638;2022-09-17T06:23:18;2.97;;;0.70;;
43837;SDS011;29493;46.516;6.638;2022-09-17T06:25:48;2.25;;;0.70;;
43837;SDS011;29493;46.516;6.638;2022-09-17T06:28:14;2.80;;;0.50;;
43837;SDS011;29493;46.516;6.638;2022-09-17T06:30:39;2.35;;;0.40;;
43837;SDS011;29493;46.516;6.638;2022-09-17T06:33:05;2.27;;;0.40;;
43837;SDS011;29493;46.516;6.638;2022-09-17T06:35:30;2.23;;;0.40;;
43837;SDS011;29493;46.516;6.638;2022-09-17T06:37:56;2.60;;;0.53;;
43837;SDS011;29493;46.516;6.638;2022-09-17T06:40:21;3.85;;;0.68;;
43837;SDS011;29493;46.516;6.638;2022-09-17T06:42:48;1.97;;;0.60;;
43837;SDS011;29493;46.516;6.638;2022-09-17T06:45:13;3.35;;;0.73;;
43837;SDS011;29493;46.516;6.638;2022-09-17T06:47:39;3.20;;;1.20;;
43837;SDS011;29493;46.516;6.638;2022-09-17T06:50:05;3.38;;;0.80;;
43837;SDS011;29493;46.516;6.638;2022-09-17T06:52:30;2.23;;;0.60;;
43837;SDS011;29493;46.516;6.638;2022-09-17T06:54:56;3.30;;;0.60;;
43837;SDS011;29493;46.516;6.638;2022-09-17T06:57:21;2.03;;;0.57;;
43837;SDS011;29493;46.516;6.638;2022-09-17T06:59:47;2.80;;;0.70;;
43837;SDS011;29493;46.516;6.638;2022-09-17T07:02:14;4.18;;;0.80;;
43837;SDS011;29493;46.516;6.638;2022-09-17T07:04:40;3.93;;;0.83;;
43837;SDS011;29493;46.516;6.638;2022-09-17T07:07:05;3.27;;;0.80;;
43837;SDS011;29493;46.516;6.638;2022-09-17T07:09:31;2.95;;;0.90;;
43837;SDS011;29493;46.516;6.638;2022-09-17T07:11:57;3.10;;;0.90;;
43837;SDS011;29493;46.516;6.638;2022-09-17T07:14:22;2.67;;;0.90;;
43837;SDS011;29493;46.516;6.638;2022-09-17T07:16:49;2.78;;;1.10;;
43837;SDS011;29493;46.516;6.638;2022-09-17T07:19:14;3.87;;;1.23;;
43837;SDS011;29493;46.516;6.638;2022-09-17T07:21:40;3.63;;;0.90;;
43837;SDS011;29493;46.516;6.638;2022-09-17T07:24:05;3.83;;;1.27;;
43837;SDS011;29493;46.516;6.638;2022-09-17T07:26:31;3.55;;;0.90;;
43837;SDS011;29493;46.516;6.638;2022-09-17T07:28:56;2.60;;;0.87;;
43837;SDS011;29493;46.516;6.638;2022-09-17T07:31:22;3.80;;;0.90;;
43837;SDS011;29493;46.516;6.638;2022-09-17T07:33:47;2.78;;;0.70;;
43837;SDS011;29493;46.516;6.638;2022-09-17T07:36:14;3.43;;;0.90;;
43837;SDS011;29493;46.516;6.638;2022-09-17T07:38:39;2.97;;;0.68;;
43837;SDS011;29493;46.516;6.638;2022-09-17T07:41:06;2.55;;;0.80;;
43837;SDS011;29493;46.516;6.638;2022-09-17T07:43:33;3.77;;;0.63;;
43837;SDS011;29493;46.516;6.638;2022-09-17T07:46:01;4.55;;;0.70;;
43837;SDS011;29493;46.516;6.638;2022-09-17T07:48:28;2.13;;;0.65;;
43837;SDS011;29493;46.516;6.638;2022-09-17T07:50:54;3.15;;;0.80;;
43837;SDS011;29493;46.516;6.638;2022-09-17T07:53:20;2.23;;;0.70;;
43837;SDS011;29493;46.516;6.638;2022-09-17T07:56:04;2.40;;;0.70;;
43837;SDS011;29493;46.516;6.638;2022-09-17T07:58:31;1.98;;;0.60;;
43837;SDS011;29493;46.516;6.638;2022-09-17T08:01:01;1.80;;;0.60;;
43837;SDS011;29493;46.516;6.638;2022-09-17T08:03:27;2.00;;;0.60;;
43837;SDS011;29493;46.516;6.638;2022-09-17T08:05:52;2.00;;;0.55;;
43837;SDS011;29493;46.516;6.638;2022-09-17T08:08:19;2.53;;;0.70;;
43837;SDS011;29493;46.516;6.638;2022-09-17T08:10:44;3.03;;;0.70;;
43837;SDS011;29493;46.516;6.638;2022-09-17T08:13:10;2.37;;;0.70;;
43837;SDS011;29493;46.516;6.638;2022-09-17T08:15:35;2.10;;;0.50;;
43837;SDS011;29493;46.516;6.638;2022-09-17T08:18:01;2.72;;;0.70;;
43837;SDS011;29493;46.516;6.638;2022-09-17T08:20:26;1.83;;;0.50;;
43837;SDS011;29493;46.516;6.638;2022-09-17T08:22:58;2.20;;;0.53;;
43837;SDS011;29493;46.516;6.638;2022-09-17T08:25:27;2.30;;;0.65;;
43837;SDS011;29493;46.516;6.638;2022-09-17T08:27:54;1.52;;;0.30;;
43837;SDS011;29493;46.516;6.638;2022-09-17T08:30:20;2.53;;;0.50;;
43837;SDS011;29493;46.516;6.638;2022-09-17T08:32:45;5.77;;;0.70;;
43837;SDS011;29493;46.516;6.638;2022-09-17T08:35:11;2.58;;;0.40;;
43837;SDS011;29493;46.516;6.638;2022-09-17T08:37:37;2.90;;;0.40;;
43837;SDS011;29493;46.516;6.638;2022-09-17T08:40:23;2.40;;;0.40;;
43837;SDS011;29493;46.516;6.638;2022-09-17T08:42:55;1.92;;;0.30;;
43837;SDS011;29493;46.516;6.638;2022-09-17T08:45:26;2.35;;;0.20;;
43837;SDS011;29493;46.516;6.638;2022-09-17T08:47:52;1.90;;;0.40;;
43837;SDS011;29493;46.516;6.638;2022-09-17T08:50:25;2.60;;;0.30;;
43837;SDS011;29493;46.516;6.638;2022-09-17T09:00:42;1.70;;;0.32;;
43837;SDS011;29493;46.516;6.638;2022-09-17T09:05:55;2.35;;;0.40;;
43837;SDS011;29493;46.516;6.638;2022-09-17T09:08:24;2.73;;;0.70;;
43837;SDS011;29493;46.516;6.638;2022-09-17T09:10:56;1.65;;;0.30;;
43837;SDS011;29493;46.516;6.638;2022-09-17T09:13:26;3.22;;;0.40;;
43837;SDS011;29493;46.516;6.638;2022-09-17T09:15:58;2.38;;;0.50;;
43837;SDS011;29493;46.516;6.638;2022-09-17T09:18:29;1.87;;;0.50;;
43837;SDS011;29493;46.516;6.638;2022-09-17T09:26:40;2.35;;;0.20;;
43837;SDS011;29493;46.516;6.638;2022-09-17T09:34:19;1.52;;;0.20;;
43837;SDS011;29493;46.516;6.638;2022-09-17T09:36:44;3.43;;;0.60;;
43837;SDS011;29493;46.516;6.638;2022-09-17T09:44:12;2.17;;;0.40;;
43837;SDS011;29493;46.516;6.638;2022-09-17T09:49:39;3.83;;;0.30;;
43837;SDS011;29493;46.516;6.638;2022-09-17T09:57:46;3.10;;;0.40;;
43837;SDS011;29493;46.516;6.638;2022-09-17T10:03:08;1.40;;;0.22;;
43837;SDS011;29493;46.516;6.638;2022-09-17T10:05:35;3.58;;;0.50;;
43837;SDS011;29493;46.516;6.638;2022-09-17T10:08:09;2.67;;;0.23;;
43837;SDS011;29493;46.516;6.638;2022-09-17T10:10:35;2.30;;;0.30;;
43837;SDS011;29493;46.516;6.638;2022-09-17T10:13:05;2.30;;;0.30;;
43837;SDS011;29493;46.516;6.638;2022-09-17T10:15:31;1.50;;;0.32;;
43837;SDS011;29493;46.516;6.638;2022-09-17T10:20:51;2.80;;;0.30;;
43837;SDS011;29493;46.516;6.638;2022-09-17T10:23:17;1.33;;;0.20;;
43837;SDS011;29493;46.516;6.638;2022-09-17T10:25:43;1.67;;;0.30;;
43837;SDS011;29493;46.516;6.638;2022-09-17T10:28:28;2.40;;;0.40;;
43837;SDS011;29493;46.516;6.638;2022-09-17T10:30:57;2.20;;;0.40;;
43837;SDS011;29493;46.516;6.638;2022-09-17T10:33:30;2.05;;;0.30;;
43837;SDS011;29493;46.516;6.638;2022-09-17T10:35:57;2.73;;;0.30;;
43837;SDS011;29493;46.516;6.638;2022-09-17T10:38:27;2.88;;;0.20;;
43837;SDS011;29493;46.516;6.638;2022-09-17T10:40:53;2.20;;;0.30;;
43837;SDS011;29493;46.516;6.638;2022-09-17T10:43:31;1.30;;;0.30;;
43837;SDS011;29493;46.516;6.638;2022-09-17T10:45:57;1.60;;;0.30;;
43837;SDS011;29493;46.516;6.638;2022-09-17T10:48:25;2.10;;;0.20;;
43837;SDS011;29493;46.516;6.638;2022-09-17T10:50:53;4.18;;;0.30;;
43837;SDS011;29493;46.516;6.638;2022-09-17T10:53:20;3.53;;;0.50;;
43837;SDS011;29493;46.516;6.638;2022-09-17T10:58:20;1.60;;;0.20;;
43837;SDS011;29493;46.516;6.638;2022-09-17T11:11:12;2.58;;;0.30;;
